Time;durP1;ratioP1;P1;durP2;ratioP2;P2;SDS_P1;SDS_P2;PMS_P1;PMS_P2;Temp;Humidity;BMP_temperature;BMP_pressure;BME280_temperature;BME280_humidity;BME280_pressure;Samples;Min_cycle;Max_cycle;Signal;HPM_P1;HPM_P2
2022/08/17 00:02:20;;;;;;;8.30;3.10;;;;;;;;;;3357097;42;20146;-60
2022/08/17 00:04:51;;;;;;;8.80;3.20;;;;;;;;;;3360459;42;20213;-60
2022/08/17 00:07:22;;;;;;;8.88;3.00;;;;;;;;;;3367551;42;20096;-60
2022/08/17 00:09:53;;;;;;;10.45;3.20;;;;;;;;;;3367392;42;20144;-61
2022/08/17 00:12:24;;;;;;;8.07;3.83;;;;;;;;;;3369832;42;20100;-61
2022/08/17 00:14:55;;;;;;;8.10;3.07;;;;;;;;;;3361706;42;20601;-63
2022/08/17 00:17:27;;;;;;;11.63;3.50;;;;;;;;;;3366487;42;20091;-61
2022/08/17 00:19:59;;;;;;;8.82;3.03;;;;;;;;;;3365693;42;20092;-61
2022/08/17 00:22:30;;;;;;;9.43;3.30;;;;;;;;;;3365164;42;20517;-60
2022/08/17 00:25:03;;;;;;;8.45;3.30;;;;;;;;;;3372662;42;20547;-61
2022/08/17 00:27:34;;;;;;;8.40;3.20;;;;;;;;;;3371924;42;20580;-61
2022/08/17 00:30:06;;;;;;;9.75;3.55;;;;;;;;;;3372367;42;20096;-61
2022/08/17 00:32:43;;;;;;;9.38;3.25;;;;;;;;;;3372881;42;20102;-62
2022/08/17 00:35:17;;;;;;;6.80;2.95;;;;;;;;;;3365535;42;20157;-61
2022/08/17 00:37:51;;;;;;;9.45;3.30;;;;;;;;;;3366076;42;20096;-62
2022/08/17 00:40:23;;;;;;;7.60;3.20;;;;;;;;;;3359089;42;20091;-60
2022/08/17 00:42:54;;;;;;;10.13;3.55;;;;;;;;;;3369922;42;20726;-62
2022/08/17 00:45:26;;;;;;;11.85;3.53;;;;;;;;;;3359052;42;20092;-61
2022/08/17 00:47:57;;;;;;;7.97;3.15;;;;;;;;;;3366195;42;20227;-61
2022/08/17 00:50:28;;;;;;;9.02;3.40;;;;;;;;;;3360880;42;20123;-61
2022/08/17 00:52:59;;;;;;;8.70;3.13;;;;;;;;;;3358228;42;20566;-62
2022/08/17 00:55:31;;;;;;;8.55;3.60;;;;;;;;;;3351858;42;20106;-61
2022/08/17 00:58:03;;;;;;;9.32;3.60;;;;;;;;;;3360551;42;20096;-61
2022/08/17 01:00:40;;;;;;;9.45;3.20;;;;;;;;;;3354092;42;20103;-66
2022/08/17 01:03:14;;;;;;;7.68;3.30;;;;;;;;;;3348430;42;20521;-61
2022/08/17 01:05:45;;;;;;;10.03;3.10;;;;;;;;;;3355871;42;20093;-62
2022/08/17 01:08:18;;;;;;;8.60;3.13;;;;;;;;;;3350021;42;20096;-61
2022/08/17 01:10:52;;;;;;;9.73;3.22;;;;;;;;;;3357229;42;20105;-60
2022/08/17 01:13:23;;;;;;;6.95;3.10;;;;;;;;;;3345843;42;20167;-61
2022/08/17 01:16:19;;;;;;;8.35;3.40;;;;;;;;;;3356511;42;20084;-61
2022/08/17 01:18:53;;;;;;;9.93;3.50;;;;;;;;;;3357508;42;20121;-61
2022/08/17 01:21:30;;;;;;;10.07;3.15;;;;;;;;;;3351753;42;20088;-61
2022/08/17 01:24:01;;;;;;;7.85;3.00;;;;;;;;;;3367352;42;20084;-61
2022/08/17 01:26:33;;;;;;;8.73;3.28;;;;;;;;;;3356855;42;20653;-61
2022/08/17 01:29:04;;;;;;;8.27;3.25;;;;;;;;;;3358856;42;20096;-61
2022/08/17 01:31:37;;;;;;;7.37;3.20;;;;;;;;;;3364646;42;20088;-60
2022/08/17 01:34:09;;;;;;;7.65;3.30;;;;;;;;;;3352986;42;20126;-60
2022/08/17 01:36:41;;;;;;;10.48;3.60;;;;;;;;;;3363893;42;20096;-61
2022/08/17 01:39:39;;;;;;;7.57;2.80;;;;;;;;;;3373005;42;20238;-62
2022/08/17 01:42:31;;;;;;;10.85;3.75;;;;;;;;;;3363487;42;20158;-61
2022/08/17 01:45:09;;;;;;;11.20;3.20;;;;;;;;;;3372370;42;20554;-61
2022/08/17 01:47:41;;;;;;;11.10;3.22;;;;;;;;;;3365638;42;20099;-61
2022/08/17 01:50:15;;;;;;;9.32;3.22;;;;;;;;;;3366084;42;20643;-61
2022/08/17 01:52:47;;;;;;;7.95;3.10;;;;;;;;;;3357137;42;20108;-64
2022/08/17 01:55:20;;;;;;;9.15;3.33;;;;;;;;;;3353905;42;20500;-60
2022/08/17 01:57:52;;;;;;;9.57;3.10;;;;;;;;;;3345414;42;20099;-61
2022/08/17 02:00:23;;;;;;;7.05;3.00;;;;;;;;;;3361151;42;20573;-61
2022/08/17 02:02:54;;;;;;;9.40;3.22;;;;;;;;;;3364344;42;20102;-60
2022/08/17 02:05:26;;;;;;;8.30;2.97;;;;;;;;;;3361283;42;20087;-61
2022/08/17 02:07:58;;;;;;;9.00;3.38;;;;;;;;;;3362235;42;20088;-61
2022/08/17 02:10:32;;;;;;;7.87;2.93;;;;;;;;;;3360766;42;20084;-60
2022/08/17 02:13:03;;;;;;;13.20;3.25;;;;;;;;;;3364324;42;20084;-59
2022/08/17 02:15:34;;;;;;;8.88;3.10;;;;;;;;;;3362132;42;20118;-61
2022/08/17 02:18:08;;;;;;;9.52;2.72;;;;;;;;;;3367162;42;20090;-62
2022/08/17 02:20:40;;;;;;;8.20;3.10;;;;;;;;;;3356367;42;20161;-62
2022/08/17 02:23:11;;;;;;;7.90;3.10;;;;;;;;;;3359647;42;20090;-62
2022/08/17 02:25:43;;;;;;;7.57;3.17;;;;;;;;;;3355029;42;20092;-61
2022/08/17 02:28:14;;;;;;;11.10;3.38;;;;;;;;;;3357563;42;20088;-60
2022/08/17 02:30:46;;;;;;;7.50;3.28;;;;;;;;;;3355185;42;20092;-61
2022/08/17 02:33:17;;;;;;;10.68;3.58;;;;;;;;;;3361066;42;20147;-60
2022/08/17 02:35:48;;;;;;;10.17;3.03;;;;;;;;;;3361111;42;20102;-60
2022/08/17 02:38:19;;;;;;;7.22;2.92;;;;;;;;;;3354309;42;20567;-61
2022/08/17 02:40:50;;;;;;;7.63;2.92;;;;;;;;;;3360219;42;20092;-61
2022/08/17 02:43:22;;;;;;;8.40;3.00;;;;;;;;;;3366159;42;20204;-61
2022/08/17 02:45:53;;;;;;;8.15;3.13;;;;;;;;;;3359314;42;20099;-61
2022/08/17 02:48:24;;;;;;;8.43;3.10;;;;;;;;;;3368323;42;20088;-60
2022/08/17 02:50:56;;;;;;;8.60;3.30;;;;;;;;;;3357235;42;20111;-60
2022/08/17 02:53:27;;;;;;;7.22;3.00;;;;;;;;;;3364025;42;20147;-64
2022/08/17 02:55:58;;;;;;;9.68;3.10;;;;;;;;;;3367061;42;20132;-61
2022/08/17 02:58:29;;;;;;;7.40;3.10;;;;;;;;;;3362103;42;20130;-61
2022/08/17 03:01:02;;;;;;;9.13;3.87;;;;;;;;;;3363969;42;20099;-60
2022/08/17 03:03:33;;;;;;;9.23;3.05;;;;;;;;;;3354649;42;20107;-61
2022/08/17 03:06:05;;;;;;;16.33;3.53;;;;;;;;;;3370027;42;20097;-61
2022/08/17 03:08:36;;;;;;;10.50;3.30;;;;;;;;;;3372950;42;20813;-61
2022/08/17 03:11:08;;;;;;;7.80;2.97;;;;;;;;;;3365893;42;20088;-62
2022/08/17 03:13:39;;;;;;;7.03;2.97;;;;;;;;;;3367639;42;20178;-62
2022/08/17 03:16:10;;;;;;;6.95;2.85;;;;;;;;;;3364170;42;20163;-62
2022/08/17 03:18:41;;;;;;;7.15;2.80;;;;;;;;;;3361228;42;20167;-62
2022/08/17 03:21:12;;;;;;;13.85;3.45;;;;;;;;;;3366049;42;20104;-61
2022/08/17 03:23:44;;;;;;;7.80;3.05;;;;;;;;;;3350373;42;20100;-61
2022/08/17 03:26:15;;;;;;;7.47;2.97;;;;;;;;;;3366989;42;20084;-62
2022/08/17 03:28:46;;;;;;;9.20;3.03;;;;;;;;;;3372823;42;20633;-60
2022/08/17 03:31:17;;;;;;;9.43;2.97;;;;;;;;;;3360047;42;20566;-61
2022/08/17 03:33:48;;;;;;;8.50;3.03;;;;;;;;;;3365604;42;20111;-62
2022/08/17 03:36:19;;;;;;;8.68;2.90;;;;;;;;;;3367146;42;20095;-62
2022/08/17 03:38:51;;;;;;;6.43;2.90;;;;;;;;;;3356813;42;20199;-63
2022/08/17 03:41:22;;;;;;;6.13;2.78;;;;;;;;;;3356311;42;20091;-61
2022/08/17 03:43:53;;;;;;;8.70;2.95;;;;;;;;;;3368138;42;20092;-60
2022/08/17 03:57:42;;;;;;;8.00;2.97;;;;;;;;;;3365438;42;20100;-63
2022/08/17 04:00:14;;;;;;;6.85;2.90;;;;;;;;;;3365568;42;20084;-62
2022/08/17 04:02:45;;;;;;;10.70;3.10;;;;;;;;;;3365412;42;20162;-62
2022/08/17 04:05:16;;;;;;;7.47;3.17;;;;;;;;;;3365330;42;20166;-62
2022/08/17 04:07:48;;;;;;;9.45;3.15;;;;;;;;;;3370833;42;20096;-62
2022/08/17 04:10:19;;;;;;;10.45;3.33;;;;;;;;;;3372652;42;20166;-60
2022/08/17 04:12:53;;;;;;;9.98;2.90;;;;;;;;;;3365514;42;20163;-61
2022/08/17 04:15:24;;;;;;;6.15;3.00;;;;;;;;;;3368578;42;20182;-62
2022/08/17 04:17:56;;;;;;;7.03;2.97;;;;;;;;;;3356760;42;20091;-61
2022/08/17 04:20:27;;;;;;;9.98;3.10;;;;;;;;;;3364856;42;20107;-60
2022/08/17 04:23:00;;;;;;;9.80;3.15;;;;;;;;;;3365295;42;20096;-61
2022/08/17 04:25:33;;;;;;;9.60;2.80;;;;;;;;;;3360483;42;20215;-61
2022/08/17 04:28:05;;;;;;;9.00;3.20;;;;;;;;;;3361201;42;20120;-63
2022/08/17 04:30:36;;;;;;;8.33;2.93;;;;;;;;;;3363746;42;20092;-63
2022/08/17 04:33:09;;;;;;;8.48;2.90;;;;;;;;;;3358067;42;20594;-65
2022/08/17 04:35:43;;;;;;;8.23;3.03;;;;;;;;;;3354110;42;20187;-62
2022/08/17 04:38:20;;;;;;;7.25;2.88;;;;;;;;;;3365568;42;20602;-62
2022/08/17 04:43:43;;;;;;;7.07;3.00;;;;;;;;;;3353490;42;20585;-61
2022/08/17 04:46:18;;;;;;;10.63;3.15;;;;;;;;;;3370623;42;20099;-65
2022/08/17 04:48:51;;;;;;;8.15;3.00;;;;;;;;;;3361704;42;20092;-61
2022/08/17 04:51:26;;;;;;;8.63;3.00;;;;;;;;;;3354065;42;20558;-63
2022/08/17 04:54:10;;;;;;;7.53;3.47;;;;;;;;;;3360967;42;20096;-61
2022/08/17 04:56:41;;;;;;;8.70;2.90;;;;;;;;;;3353926;42;20571;-63
2022/08/17 04:59:15;;;;;;;9.52;3.50;;;;;;;;;;3359314;42;20648;-65
2022/08/17 05:01:48;;;;;;;7.57;2.83;;;;;;;;;;3364814;42;20571;-62
2022/08/17 05:04:23;;;;;;;8.27;3.17;;;;;;;;;;3351213;42;20080;-62
2022/08/17 05:06:54;;;;;;;9.15;3.08;;;;;;;;;;3360011;42;20106;-62
2022/08/17 05:09:25;;;;;;;10.50;3.40;;;;;;;;;;3365099;42;20084;-62
2022/08/17 05:12:01;;;;;;;8.45;3.20;;;;;;;;;;3370153;42;20100;-63
2022/08/17 05:14:32;;;;;;;6.97;2.67;;;;;;;;;;3364741;42;20099;-62
2022/08/17 05:17:03;;;;;;;9.80;3.10;;;;;;;;;;3364662;42;20142;-61
2022/08/17 05:19:34;;;;;;;13.95;3.30;;;;;;;;;;3371622;42;20087;-61
2022/08/17 05:22:05;;;;;;;9.73;3.00;;;;;;;;;;3369549;42;20558;-62
2022/08/17 05:24:37;;;;;;;9.50;3.05;;;;;;;;;;3362877;42;20190;-62
2022/08/17 05:27:08;;;;;;;10.95;3.38;;;;;;;;;;3360051;42;20096;-61
2022/08/17 05:29:39;;;;;;;9.68;3.10;;;;;;;;;;3360529;42;20772;-63
2022/08/17 05:32:11;;;;;;;11.45;2.95;;;;;;;;;;3365050;42;20111;-62
2022/08/17 05:34:42;;;;;;;7.33;2.77;;;;;;;;;;3359771;42;20698;-63
2022/08/17 05:37:13;;;;;;;7.25;2.80;;;;;;;;;;3362011;42;20084;-64
2022/08/17 05:39:44;;;;;;;9.43;2.90;;;;;;;;;;3360465;42;20115;-63
2022/08/17 05:42:19;;;;;;;10.57;3.17;;;;;;;;;;3359328;42;20107;-62
2022/08/17 05:44:50;;;;;;;8.15;2.78;;;;;;;;;;3360829;42;20093;-64
2022/08/17 05:47:22;;;;;;;8.60;2.80;;;;;;;;;;3360138;42;20172;-63
2022/08/17 05:49:53;;;;;;;8.98;3.05;;;;;;;;;;3351319;42;20098;-63
2022/08/17 05:52:36;;;;;;;7.80;2.60;;;;;;;;;;3367644;42;20518;-63
2022/08/17 05:55:35;;;;;;;10.40;2.63;;;;;;;;;;3359330;42;20091;-63
2022/08/17 05:58:09;;;;;;;7.45;3.00;;;;;;;;;;3358118;42;20099;-62
2022/08/17 06:00:52;;;;;;;10.90;2.97;;;;;;;;;;3359163;42;20115;-62
2022/08/17 06:03:37;;;;;;;9.07;3.17;;;;;;;;;;3355456;42;20103;-62
2022/08/17 06:06:44;;;;;;;8.23;2.80;;;;;;;;;;3358782;42;20648;-62
2022/08/17 06:09:33;;;;;;;7.25;2.97;;;;;;;;;;3361506;42;20577;-62
2022/08/17 06:12:52;;;;;;;7.47;2.50;;;;;;;;;;3361990;42;20622;-62
2022/08/17 06:15:49;;;;;;;7.07;2.40;;;;;;;;;;3336717;42;20097;-63
2022/08/17 06:18:20;;;;;;;6.03;2.22;;;;;;;;;;3358052;42;20566;-63
2022/08/17 06:21:02;;;;;;;5.82;2.42;;;;;;;;;;3364937;42;20923;-63
2022/08/17 06:23:36;;;;;;;7.30;2.65;;;;;;;;;;3363797;42;20088;-63
2022/08/17 06:26:12;;;;;;;8.10;2.40;;;;;;;;;;3364147;42;20597;-62
2022/08/17 06:28:48;;;;;;;11.17;2.40;;;;;;;;;;3356689;42;20155;-64
2022/08/17 06:31:28;;;;;;;8.40;2.30;;;;;;;;;;3364127;42;20088;-65
2022/08/17 06:34:01;;;;;;;7.93;2.30;;;;;;;;;;3362422;42;20107;-63
2022/08/17 06:36:51;;;;;;;6.35;2.22;;;;;;;;;;3362278;42;20100;-62
2022/08/17 06:39:31;;;;;;;7.65;2.35;;;;;;;;;;3369390;42;20154;-64
2022/08/17 06:42:30;;;;;;;6.03;2.30;;;;;;;;;;3369041;42;20143;-61
2022/08/17 06:45:08;;;;;;;7.45;2.30;;;;;;;;;;3357000;42;20100;-63
2022/08/17 06:48:11;;;;;;;6.47;2.40;;;;;;;;;;3357179;42;20103;-59
2022/08/17 06:50:48;;;;;;;7.22;2.30;;;;;;;;;;3359724;42;20084;-61
2022/08/17 06:53:23;;;;;;;7.63;2.47;;;;;;;;;;3349598;42;20171;-60
2022/08/17 06:56:04;;;;;;;8.97;2.60;;;;;;;;;;3352117;42;20158;-60
2022/08/17 06:58:36;;;;;;;7.88;2.60;;;;;;;;;;3353247;42;20159;-58
2022/08/17 07:01:11;;;;;;;7.28;2.72;;;;;;;;;;3355124;42;20597;-61
2022/08/17 07:04:05;;;;;;;8.52;2.65;;;;;;;;;;3348103;42;20151;-62
2022/08/17 07:06:50;;;;;;;7.72;2.45;;;;;;;;;;3357727;42;20175;-61
2022/08/17 07:09:30;;;;;;;7.20;2.30;;;;;;;;;;3356375;42;20087;-60
2022/08/17 07:12:02;;;;;;;9.00;2.42;;;;;;;;;;3353887;42;20482;-61
2022/08/17 07:14:45;;;;;;;6.85;2.25;;;;;;;;;;3354826;42;20095;-60
2022/08/17 07:17:17;;;;;;;6.88;1.85;;;;;;;;;;3372645;42;20103;-60
2022/08/17 07:19:50;;;;;;;7.50;2.05;;;;;;;;;;3372054;42;20156;-60
2022/08/17 07:22:40;;;;;;;5.43;1.87;;;;;;;;;;3358923;42;20573;-61
2022/08/17 07:25:13;;;;;;;6.10;2.40;;;;;;;;;;3367913;42;21030;-60
2022/08/17 07:27:49;;;;;;;5.53;2.13;;;;;;;;;;3356690;42;20096;-62
2022/08/17 07:30:32;;;;;;;6.25;2.17;;;;;;;;;;3366138;42;20114;-60
2022/08/17 07:33:09;;;;;;;6.25;2.20;;;;;;;;;;3371813;42;20120;-60
2022/08/17 07:35:41;;;;;;;8.70;2.40;;;;;;;;;;3372956;42;20655;-62
2022/08/17 07:38:23;;;;;;;7.35;2.17;;;;;;;;;;3370988;42;20152;-61
2022/08/17 07:41:00;;;;;;;7.13;2.40;;;;;;;;;;3370096;42;20144;-59
2022/08/17 07:43:51;;;;;;;6.53;2.30;;;;;;;;;;3365168;42;20143;-60
2022/08/17 07:49:32;;;;;;;8.40;2.00;;;;;;;;;;3359390;42;20088;-60
2022/08/17 07:52:24;;;;;;;6.60;1.90;;;;;;;;;;3358032;42;20115;-63
2022/08/17 07:54:55;;;;;;;6.20;2.00;;;;;;;;;;3362812;42;20091;-60
2022/08/17 07:57:32;;;;;;;6.32;1.80;;;;;;;;;;3360125;42;20092;-61
2022/08/17 08:00:08;;;;;;;5.30;1.83;;;;;;;;;;3352702;42;20156;-61
2022/08/17 08:02:41;;;;;;;5.30;2.00;;;;;;;;;;3368789;42;20742;-57
2022/08/17 08:05:26;;;;;;;5.97;1.83;;;;;;;;;;3356562;42;20118;-58
2022/08/17 08:07:59;;;;;;;6.93;1.70;;;;;;;;;;3354622;42;20214;-60
2022/08/17 08:10:37;;;;;;;5.57;1.75;;;;;;;;;;3360510;42;20243;-59
2022/08/17 08:13:24;;;;;;;4.88;1.70;;;;;;;;;;3354709;42;20103;-59
2022/08/17 08:16:25;;;;;;;7.90;1.90;;;;;;;;;;3367817;42;20630;-60
2022/08/17 08:19:00;;;;;;;6.25;1.85;;;;;;;;;;3357215;42;20578;-60
2022/08/17 08:21:40;;;;;;;5.82;1.75;;;;;;;;;;3360590;42;20126;-60
2022/08/17 08:24:17;;;;;;;5.28;1.80;;;;;;;;;;3371109;42;20128;-60
2022/08/17 08:27:12;;;;;;;7.32;2.00;;;;;;;;;;3359228;42;20356;-61
2022/08/17 08:29:55;;;;;;;5.43;1.83;;;;;;;;;;3353684;42;20162;-62
2022/08/17 08:32:49;;;;;;;5.30;1.73;;;;;;;;;;3362572;42;20080;-60
2022/08/17 08:35:51;;;;;;;7.82;2.03;;;;;;;;;;3362972;42;20135;-61
2022/08/17 08:38:33;;;;;;;6.43;1.90;;;;;;;;;;3358409;42;20182;-59
2022/08/17 08:41:18;;;;;;;6.30;1.70;;;;;;;;;;3355543;42;20207;-60
2022/08/17 08:44:20;;;;;;;7.33;1.93;;;;;;;;;;3360433;42;20096;-59
2022/08/17 08:47:01;;;;;;;9.00;2.22;;;;;;;;;;3354151;42;20641;-60
2022/08/17 08:49:51;;;;;;;7.28;1.67;;;;;;;;;;3371151;42;20115;-61
2022/08/17 08:52:34;;;;;;;5.38;2.00;;;;;;;;;;3364448;42;20107;-63
2022/08/17 08:55:33;;;;;;;5.38;1.88;;;;;;;;;;3358019;42;20140;-58
2022/08/17 08:58:07;;;;;;;4.97;1.50;;;;;;;;;;3350675;42;20103;-58
2022/08/17 09:00:42;;;;;;;7.38;1.65;;;;;;;;;;3363825;42;20100;-60
2022/08/17 09:03:19;;;;;;;6.47;1.60;;;;;;;;;;3352970;42;20100;-58
2022/08/17 09:06:21;;;;;;;5.35;1.70;;;;;;;;;;3355310;42;20690;-59
2022/08/17 09:09:09;;;;;;;5.47;2.10;;;;;;;;;;3358447;42;20104;-60
2022/08/17 09:11:47;;;;;;;9.10;2.10;;;;;;;;;;3360196;42;20105;-62
2022/08/17 09:14:27;;;;;;;5.28;1.92;;;;;;;;;;3354313;42;20170;-61
2022/08/17 09:17:01;;;;;;;5.90;1.80;;;;;;;;;;3374038;42;20096;-63
2022/08/17 09:19:50;;;;;;;6.32;2.00;;;;;;;;;;3364236;42;20186;-62
2022/08/17 09:22:32;;;;;;;7.93;2.20;;;;;;;;;;3357326;42;20483;-64
2022/08/17 09:25:17;;;;;;;7.43;1.80;;;;;;;;;;3360368;42;20111;-61
2022/08/17 09:28:06;;;;;;;8.13;2.10;;;;;;;;;;3352260;42;20114;-61
2022/08/17 09:30:44;;;;;;;9.93;2.80;;;;;;;;;;3358582;42;20122;-61
2022/08/17 09:33:21;;;;;;;7.10;2.20;;;;;;;;;;3350847;42;20151;-61
2022/08/17 09:36:03;;;;;;;9.05;1.90;;;;;;;;;;3356376;42;20174;-61
2022/08/17 09:38:38;;;;;;;7.53;2.40;;;;;;;;;;3357327;42;20173;-61
2022/08/17 09:41:25;;;;;;;7.50;2.25;;;;;;;;;;3367590;42;20099;-61
2022/08/17 09:44:25;;;;;;;7.75;1.90;;;;;;;;;;3353429;42;20101;-61
2022/08/17 09:47:19;;;;;;;6.47;2.13;;;;;;;;;;3362828;42;20135;-62
2022/08/17 09:49:53;;;;;;;5.15;1.92;;;;;;;;;;3360225;42;20087;-60
2022/08/17 09:52:26;;;;;;;6.67;2.00;;;;;;;;;;3353850;42;20119;-62
2022/08/17 09:54:58;;;;;;;6.65;2.08;;;;;;;;;;3363906;42;20163;-60
2022/08/17 09:57:46;;;;;;;7.32;2.00;;;;;;;;;;3363758;42;20099;-60
2022/08/17 10:00:26;;;;;;;5.22;2.00;;;;;;;;;;3364527;42;20588;-61
2022/08/17 10:03:10;;;;;;;4.60;1.80;;;;;;;;;;3357103;42;20629;-63
2022/08/17 10:05:51;;;;;;;6.23;2.00;;;;;;;;;;3353894;42;20080;-61
2022/08/17 10:08:30;;;;;;;6.45;2.00;;;;;;;;;;3362079;42;20555;-63
2022/08/17 10:11:18;;;;;;;6.93;1.73;;;;;;;;;;3353214;42;20087;-60
2022/08/17 10:13:56;;;;;;;4.88;1.65;;;;;;;;;;3357157;42;20167;-61
2022/08/17 10:16:44;;;;;;;6.68;1.80;;;;;;;;;;3364632;42;20624;-61
2022/08/17 10:19:17;;;;;;;7.80;1.73;;;;;;;;;;3371312;42;20147;-61
2022/08/17 10:27:50;;;;;;;4.45;1.48;;;;;;;;;;3364514;42;20079;-62
2022/08/17 10:30:23;;;;;;;7.70;1.80;;;;;;;;;;3364446;42;20517;-61
2022/08/17 10:32:58;;;;;;;8.20;1.80;;;;;;;;;;3357139;42;20182;-62
2022/08/17 10:35:57;;;;;;;5.32;1.60;;;;;;;;;;3358778;42;20087;-62
2022/08/17 10:38:35;;;;;;;5.43;1.60;;;;;;;;;;3358823;42;20092;-63
2022/08/17 10:41:28;;;;;;;8.65;1.70;;;;;;;;;;3350543;42;20166;-60
2022/08/17 10:44:10;;;;;;;5.22;1.60;;;;;;;;;;3359058;42;20171;-61
2022/08/17 10:46:51;;;;;;;5.60;1.70;;;;;;;;;;3365848;42;20526;-60
2022/08/17 10:49:25;;;;;;;4.57;1.60;;;;;;;;;;3358295;42;20108;-61
2022/08/17 10:51:58;;;;;;;5.65;1.50;;;;;;;;;;3360382;42;20525;-60
2022/08/17 10:54:36;;;;;;;5.18;1.58;;;;;;;;;;3355526;42;20142;-60
2022/08/17 10:57:49;;;;;;;5.10;1.70;;;;;;;;;;3373159;42;20143;-59
2022/08/17 11:00:20;;;;;;;8.40;1.50;;;;;;;;;;3344592;42;20590;-60
2022/08/17 11:02:56;;;;;;;7.25;1.75;;;;;;;;;;3369978;42;20096;-60
2022/08/17 11:05:45;;;;;;;3.95;1.20;;;;;;;;;;3357515;42;20092;-60
2022/08/17 11:08:22;;;;;;;6.80;1.80;;;;;;;;;;3361126;42;20092;-60
2022/08/17 11:11:10;;;;;;;5.35;1.60;;;;;;;;;;3369964;42;20553;-61
2022/08/17 11:14:05;;;;;;;4.90;1.60;;;;;;;;;;3363533;42;20632;-60
2022/08/17 11:17:05;;;;;;;6.68;2.30;;;;;;;;;;3363259;42;20087;-60
2022/08/17 11:20:14;;;;;;;5.43;1.52;;;;;;;;;;3361436;42;20099;-59
2022/08/17 11:23:19;;;;;;;6.57;1.67;;;;;;;;;;3360472;42;20107;-61
2022/08/17 11:25:54;;;;;;;5.28;1.45;;;;;;;;;;3354750;42;20099;-61
2022/08/17 11:28:33;;;;;;;5.03;1.50;;;;;;;;;;3359922;42;20139;-62
2022/08/17 11:31:08;;;;;;;5.88;1.65;;;;;;;;;;3364488;42;20092;-62
2022/08/17 11:33:43;;;;;;;5.82;2.13;;;;;;;;;;3358531;42;20173;-61
2022/08/17 11:36:48;;;;;;;5.63;1.40;;;;;;;;;;3360925;42;20165;-61
2022/08/17 11:40:04;;;;;;;7.20;1.67;;;;;;;;;;3369455;42;20091;-62
2022/08/17 11:42:46;;;;;;;5.27;1.60;;;;;;;;;;3359468;42;20143;-60
2022/08/17 11:45:52;;;;;;;7.03;1.55;;;;;;;;;;3364621;42;20096;-62
2022/08/17 11:51:53;;;;;;;5.05;1.60;;;;;;;;;;3352805;42;20154;-61
2022/08/17 11:54:36;;;;;;;4.70;1.70;;;;;;;;;;3369209;42;20087;-62
2022/08/17 11:57:26;;;;;;;4.93;1.40;;;;;;;;;;3368915;42;20088;-61
2022/08/17 12:00:06;;;;;;;6.25;1.60;;;;;;;;;;3360863;42;20118;-60
2022/08/17 12:02:43;;;;;;;5.38;1.50;;;;;;;;;;3364745;42;20169;-60
2022/08/17 12:05:26;;;;;;;7.30;1.75;;;;;;;;;;3357751;42;20079;-60
2022/08/17 12:08:03;;;;;;;6.32;1.90;;;;;;;;;;3366395;42;20141;-67
2022/08/17 12:10:35;;;;;;;6.00;1.70;;;;;;;;;;3364387;42;20110;-62
2022/08/17 12:13:13;;;;;;;6.78;1.52;;;;;;;;;;3353415;42;20566;-61
2022/08/17 12:15:48;;;;;;;7.22;1.70;;;;;;;;;;3354560;42;20091;-63
2022/08/17 12:18:27;;;;;;;7.32;1.75;;;;;;;;;;3365274;42;20080;-62
2022/08/17 12:21:21;;;;;;;5.53;1.67;;;;;;;;;;3373091;42;20107;-61
2022/08/17 12:23:56;;;;;;;6.13;1.70;;;;;;;;;;3360755;42;20513;-63
2022/08/17 12:26:30;;;;;;;6.60;1.50;;;;;;;;;;3366016;42;20091;-61
2022/08/17 12:29:03;;;;;;;5.13;1.50;;;;;;;;;;3357976;42;20092;-61
2022/08/17 12:31:42;;;;;;;6.18;1.83;;;;;;;;;;3365283;42;20581;-61
2022/08/17 12:34:25;;;;;;;5.40;1.45;;;;;;;;;;3354024;42;20195;-63
2022/08/17 12:37:01;;;;;;;5.30;1.37;;;;;;;;;;3349258;42;20153;-63
2022/08/17 12:39:33;;;;;;;4.57;1.63;;;;;;;;;;3355402;42;20114;-62
2022/08/17 12:42:04;;;;;;;4.95;1.40;;;;;;;;;;3367121;42;20198;-60
2022/08/17 12:44:36;;;;;;;7.55;1.48;;;;;;;;;;3354215;42;20653;-62
2022/08/17 12:47:16;;;;;;;5.60;1.40;;;;;;;;;;3350302;42;20482;-61
2022/08/17 12:49:49;;;;;;;6.90;1.50;;;;;;;;;;3371826;42;20143;-61
2022/08/17 12:52:25;;;;;;;4.60;1.20;;;;;;;;;;3368053;42;20092;-63
2022/08/17 12:54:58;;;;;;;6.43;1.42;;;;;;;;;;3361229;42;20814;-61
2022/08/17 12:57:31;;;;;;;5.18;1.40;;;;;;;;;;3354711;42;20084;-61
2022/08/17 13:00:19;;;;;;;5.88;1.73;;;;;;;;;;3354943;42;20095;-61
2022/08/17 13:03:04;;;;;;;4.73;1.40;;;;;;;;;;3352625;42;20843;-61
2022/08/17 13:05:51;;;;;;;5.05;1.23;;;;;;;;;;3353527;42;20135;-63
2022/08/17 13:08:30;;;;;;;5.22;1.60;;;;;;;;;;3363277;42;20088;-61
2022/08/17 13:11:17;;;;;;;5.07;1.13;;;;;;;;;;3371991;42;20102;-62
2022/08/17 13:13:50;;;;;;;4.70;1.30;;;;;;;;;;3349109;42;20096;-61
2022/08/17 13:16:29;;;;;;;8.70;1.53;;;;;;;;;;3350261;42;20598;-61
2022/08/17 13:19:07;;;;;;;6.38;1.42;;;;;;;;;;3350387;42;20110;-60
2022/08/17 13:21:43;;;;;;;5.47;1.38;;;;;;;;;;3356960;42;20088;-62
2022/08/17 13:24:39;;;;;;;5.82;1.50;;;;;;;;;;3353880;42;20549;-61
2022/08/17 13:27:11;;;;;;;4.88;1.40;;;;;;;;;;3355483;42;20087;-61
2022/08/17 13:29:45;;;;;;;5.83;1.50;;;;;;;;;;3357705;42;20202;-60
2022/08/17 13:32:41;;;;;;;4.88;1.52;;;;;;;;;;3365050;42;20590;-61
2022/08/17 13:35:40;;;;;;;10.50;1.55;;;;;;;;;;3358506;42;20136;-61
2022/08/17 13:38:23;;;;;;;5.93;1.80;;;;;;;;;;3358056;42;20099;-61
2022/08/17 13:40:54;;;;;;;4.72;1.20;;;;;;;;;;3364131;42;20155;-61
2022/08/17 13:43:48;;;;;;;10.00;1.77;;;;;;;;;;3357457;42;20099;-62
2022/08/17 13:46:25;;;;;;;4.43;1.50;;;;;;;;;;3363290;42;20107;-63
2022/08/17 13:49:04;;;;;;;5.53;1.58;;;;;;;;;;3370490;42;20564;-61
2022/08/17 13:51:41;;;;;;;4.82;1.35;;;;;;;;;;3344754;42;20103;-61
2022/08/17 13:54:31;;;;;;;6.35;1.40;;;;;;;;;;3352879;42;20096;-62
2022/08/17 13:57:05;;;;;;;7.13;1.30;;;;;;;;;;3352353;42;20111;-62
2022/08/17 13:59:47;;;;;;;4.63;1.15;;;;;;;;;;3355435;42;20118;-62
2022/08/17 14:02:19;;;;;;;5.32;1.50;;;;;;;;;;3362638;42;20182;-63
2022/08/17 14:04:50;;;;;;;5.18;1.42;;;;;;;;;;3364353;42;20203;-60
2022/08/17 14:07:32;;;;;;;7.90;1.30;;;;;;;;;;3364316;42;20163;-61
2022/08/17 14:10:13;;;;;;;4.30;1.30;;;;;;;;;;3356955;42;20552;-61
2022/08/17 14:12:44;;;;;;;5.78;1.40;;;;;;;;;;3362646;42;20223;-61
2022/08/17 14:15:16;;;;;;;4.70;1.13;;;;;;;;;;3354860;42;20103;-62
2022/08/17 14:17:48;;;;;;;8.68;1.80;;;;;;;;;;3364388;42;20098;-65
2022/08/17 14:20:21;;;;;;;5.10;1.35;;;;;;;;;;3369823;42;20108;-60
2022/08/17 14:22:54;;;;;;;21.47;2.90;;;;;;;;;;3369599;42;20604;-62
2022/08/17 14:25:26;;;;;;;11.85;1.67;;;;;;;;;;3355544;42;20141;-62
2022/08/17 14:27:57;;;;;;;5.95;1.40;;;;;;;;;;3371070;42;20127;-61
2022/08/17 14:30:29;;;;;;;5.22;1.83;;;;;;;;;;3364441;42;20087;-64
2022/08/17 14:33:01;;;;;;;5.88;2.10;;;;;;;;;;3362102;42;20159;-61
2022/08/17 14:35:32;;;;;;;7.77;2.10;;;;;;;;;;3359662;42;20196;-61
2022/08/17 14:38:04;;;;;;;6.03;1.88;;;;;;;;;;3355539;42;20212;-61
2022/08/17 14:40:36;;;;;;;8.48;2.00;;;;;;;;;;3364223;42;20135;-60
2022/08/17 14:43:07;;;;;;;6.18;1.60;;;;;;;;;;3353897;42;20112;-61
2022/08/17 14:45:40;;;;;;;5.25;1.58;;;;;;;;;;3354634;42;20102;-60
2022/08/17 14:48:11;;;;;;;7.57;1.70;;;;;;;;;;3361018;42;20170;-60
2022/08/17 14:50:42;;;;;;;4.93;1.60;;;;;;;;;;3362271;42;20092;-61
2022/08/17 14:53:14;;;;;;;6.03;1.80;;;;;;;;;;3355626;42;20104;-62
2022/08/17 14:55:48;;;;;;;7.32;1.90;;;;;;;;;;3362654;42;20102;-60
2022/08/17 14:58:19;;;;;;;5.75;1.65;;;;;;;;;;3364134;42;20095;-60
2022/08/17 15:00:51;;;;;;;5.73;1.67;;;;;;;;;;3365253;42;20467;-60
2022/08/17 15:03:22;;;;;;;6.45;1.80;;;;;;;;;;3360392;42;20909;-62
2022/08/17 15:05:54;;;;;;;7.43;1.70;;;;;;;;;;3355126;42;20585;-60
2022/08/17 15:08:25;;;;;;;5.22;1.80;;;;;;;;;;3355389;42;20883;-60
2022/08/17 15:10:56;;;;;;;6.45;1.70;;;;;;;;;;3356267;42;20084;-61
2022/08/17 15:13:27;;;;;;;5.70;1.80;;;;;;;;;;3364389;42;20111;-60
2022/08/17 15:15:58;;;;;;;7.00;1.90;;;;;;;;;;3350362;42;20566;-61
2022/08/17 15:18:30;;;;;;;8.45;1.80;;;;;;;;;;3351476;42;20502;-60
2022/08/17 15:21:04;;;;;;;6.78;2.00;;;;;;;;;;3371052;42;20143;-61
2022/08/17 15:23:36;;;;;;;5.47;1.80;;;;;;;;;;3354600;42;20147;-60
2022/08/17 15:26:07;;;;;;;6.10;2.00;;;;;;;;;;3367364;42;20170;-61
2022/08/17 15:28:38;;;;;;;6.45;1.77;;;;;;;;;;3349905;42;20151;-60
2022/08/17 15:31:09;;;;;;;7.72;1.90;;;;;;;;;;3359316;42;20162;-60
2022/08/17 15:33:40;;;;;;;6.18;2.08;;;;;;;;;;3363080;42;20163;-62
2022/08/17 15:36:12;;;;;;;5.43;1.88;;;;;;;;;;3358028;42;20118;-61
2022/08/17 15:38:43;;;;;;;7.63;2.00;;;;;;;;;;3372662;42;20088;-61
2022/08/17 15:41:16;;;;;;;5.90;1.63;;;;;;;;;;3363377;42;20099;-63
2022/08/17 15:43:51;;;;;;;11.57;1.90;;;;;;;;;;3357554;42;20147;-61
2022/08/17 15:46:24;;;;;;;5.68;1.70;;;;;;;;;;3365334;42;20583;-61
2022/08/17 15:48:57;;;;;;;6.25;1.80;;;;;;;;;;3365478;42;20107;-61
2022/08/17 15:51:30;;;;;;;9.40;1.70;;;;;;;;;;3370724;42;20104;-61
2022/08/17 15:54:08;;;;;;;8.48;1.70;;;;;;;;;;3358301;42;20123;-62
2022/08/17 15:56:40;;;;;;;7.82;1.98;;;;;;;;;;3372717;42;20095;-61
2022/08/17 15:59:11;;;;;;;10.43;2.33;;;;;;;;;;3365641;42;20183;-61
2022/08/17 16:01:42;;;;;;;6.03;1.50;;;;;;;;;;3365373;42;20088;-61
2022/08/17 16:04:13;;;;;;;5.57;1.80;;;;;;;;;;3357128;42;20088;-61
2022/08/17 16:06:44;;;;;;;5.75;1.80;;;;;;;;;;3365115;42;20147;-61
2022/08/17 16:09:16;;;;;;;5.90;2.00;;;;;;;;;;3366842;42;20100;-61